createdAt,value
2018-12-19T00:01:33.294Z,74.23
2018-12-19T00:04:36.515Z,74.37
2018-12-19T00:07:39.772Z,74.61
2018-12-19T00:10:43.028Z,74.19
2018-12-19T00:13:46.282Z,74.11
2018-12-19T00:16:49.512Z,73.46
2018-12-19T00:19:52.737Z,73.55
2018-12-19T00:22:55.969Z,74.35
2018-12-19T00:25:59.193Z,74.84
2018-12-19T00:29:02.441Z,75.29
2018-12-19T00:32:05.657Z,75.50
2018-12-19T00:35:08.892Z,75.50
2018-12-19T00:38:12.140Z,75.59
2018-12-19T00:41:15.398Z,76.52
2018-12-19T00:44:18.620Z,76.32
2018-12-19T00:47:21.865Z,75.75
2018-12-19T00:50:25.125Z,76.50
2018-12-19T00:53:28.378Z,77.20
2018-12-19T00:56:31.592Z,76.15
2018-12-19T00:59:34.832Z,76.27
2018-12-19T01:02:38.080Z,75.84
2018-12-19T01:05:41.305Z,76.30
2018-12-19T01:08:44.535Z,76.32
2018-12-19T01:11:47.755Z,76.20
2018-12-19T01:14:50.983Z,76.14
2018-12-19T01:17:54.288Z,74.17
2018-12-19T01:20:57.518Z,73.46
2018-12-19T01:24:00.757Z,73.80
2018-12-19T01:27:04.001Z,73.35
2018-12-19T01:30:07.321Z,72.87
2018-12-19T01:33:10.554Z,71.88
2018-12-19T01:36:13.776Z,72.72
2018-12-19T01:39:22.501Z,72.34
2018-12-19T01:42:22.240Z,72.70
2018-12-19T01:45:25.478Z,71.87
2018-12-19T01:48:28.785Z,72.24
2018-12-19T01:51:32.133Z,72.23
2018-12-19T01:54:35.367Z,72.26
2018-12-19T01:57:38.585Z,71.81
2018-12-19T02:00:41.820Z,71.67
2018-12-19T02:03:45.047Z,72.36
2018-12-19T02:06:48.276Z,71.70
2018-12-19T02:09:51.592Z,72.31
2018-12-19T02:12:54.817Z,73.64
2018-12-19T02:15:58.048Z,71.38
2018-12-19T02:19:01.271Z,71.10
2018-12-19T02:22:04.533Z,71.09
2018-12-19T02:25:07.828Z,70.41
2018-12-19T02:28:11.051Z,70.66
2018-12-19T02:31:14.338Z,70.98
2018-12-19T02:34:17.593Z,72.71
2018-12-19T02:37:20.812Z,72.39
2018-12-19T02:40:24.040Z,74.28
2018-12-19T02:43:27.387Z,73.34
2018-12-19T02:46:30.596Z,73.21
2018-12-19T02:49:33.838Z,73.09
2018-12-19T02:52:37.135Z,73.92
2018-12-19T02:55:40.364Z,75.57
2018-12-19T02:58:43.609Z,75.69
2018-12-19T03:01:46.834Z,76.63
2018-12-19T03:04:50.073Z,75.76
2018-12-19T03:07:53.292Z,75.46
2018-12-19T03:10:56.978Z,75.20
2018-12-19T03:14:00.236Z,74.42
2018-12-19T03:17:03.598Z,73.03
2018-12-19T03:20:06.852Z,72.83
2018-12-19T03:23:10.081Z,73.81
2018-12-19T03:26:13.296Z,74.22
2018-12-19T03:29:16.529Z,74.19
2018-12-19T03:32:19.783Z,74.45
2018-12-19T03:35:23.152Z,75.23
2018-12-19T03:38:26.532Z,75.59
2018-12-19T03:41:29.841Z,75.48
2018-12-19T03:44:33.123Z,75.97
2018-12-19T03:47:36.351Z,76.22
2018-12-19T03:50:39.616Z,76.09
2018-12-19T03:53:42.847Z,75.52
2018-12-19T03:56:46.683Z,75.60
2018-12-19T03:59:49.922Z,75.10
2018-12-19T04:02:53.252Z,75.29
2018-12-19T04:05:56.604Z,74.65
2018-12-19T04:08:59.804Z,74.32
2018-12-19T04:12:03.384Z,74.38
2018-12-19T04:15:06.672Z,74.43
2018-12-19T04:18:09.973Z,73.67
2018-12-19T04:21:13.254Z,73.43
2018-12-19T04:24:16.519Z,73.35
2018-12-19T04:27:19.792Z,73.18
2018-12-19T04:30:23.118Z,72.63
2018-12-19T04:33:26.491Z,73.08
2018-12-19T04:36:29.704Z,73.35
2018-12-19T04:39:32.985Z,73.41
2018-12-19T04:42:36.227Z,73.67
2018-12-19T04:45:39.448Z,72.45
2018-12-19T04:48:42.673Z,72.71
2018-12-19T04:51:45.958Z,73.04
2018-12-19T04:54:49.295Z,73.24
2018-12-19T04:57:52.609Z,71.22
2018-12-19T05:00:55.879Z,71.85
2018-12-19T05:03:59.116Z,72.35
2018-12-19T05:07:02.381Z,72.11
2018-12-19T05:10:12.154Z,72.48
2018-12-19T05:13:16.792Z,72.23
2018-12-19T05:16:20.104Z,71.96
2018-12-19T05:19:23.330Z,71.53
2018-12-19T05:22:26.619Z,72.02
2018-12-19T05:25:29.822Z,71.99
2018-12-19T05:28:33.042Z,71.34
2018-12-19T05:31:36.264Z,72.00
2018-12-19T05:34:39.509Z,72.57
2018-12-19T05:37:42.768Z,71.59
2018-12-19T05:40:46.021Z,72.21
2018-12-19T05:43:49.236Z,72.03
2018-12-19T05:46:52.488Z,69.94
2018-12-19T05:49:56.051Z,70.97
2018-12-19T05:52:59.376Z,70.88
2018-12-19T05:56:02.692Z,71.13
2018-12-19T05:59:05.912Z,70.73
2018-12-19T06:02:09.145Z,71.50
2018-12-19T06:05:12.370Z,71.75
2018-12-19T06:08:15.601Z,71.66
2018-12-19T06:11:18.857Z,70.52
2018-12-19T06:14:22.178Z,71.30
2018-12-19T06:17:25.417Z,72.79
2018-12-19T06:20:28.654Z,72.58
2018-12-19T06:23:31.881Z,73.08
2018-12-19T06:26:35.106Z,73.52
2018-12-19T06:29:38.367Z,74.71
2018-12-19T06:32:41.603Z,76.02
2018-12-19T06:35:44.828Z,76.46
2018-12-19T06:38:48.060Z,76.65
2018-12-19T06:41:51.308Z,76.31
2018-12-19T06:44:54.528Z,77.21
2018-12-19T06:47:57.812Z,78.20
2018-12-19T06:51:01.049Z,79.39
2018-12-19T06:54:04.292Z,80.29
2018-12-19T06:57:07.541Z,80.26
2018-12-19T07:00:10.825Z,79.49
2018-12-19T07:03:14.180Z,80.15
2018-12-19T07:06:17.466Z,80.52
2018-12-19T07:09:20.750Z,79.96
2018-12-19T07:12:23.985Z,80.42
2018-12-19T07:15:27.301Z,80.06
2018-12-19T07:18:30.519Z,80.82
2018-12-19T07:21:33.775Z,80.95
2018-12-19T07:24:36.973Z,80.99
2018-12-19T07:27:40.196Z,81.32
2018-12-19T07:30:43.421Z,81.64
2018-12-19T07:33:46.757Z,81.53
2018-12-19T07:36:49.977Z,81.16
2018-12-19T07:39:53.193Z,81.49
2018-12-19T07:42:56.453Z,80.71
2018-12-19T07:45:59.697Z,81.37
2018-12-19T07:49:02.924Z,81.00
2018-12-19T07:52:06.181Z,81.54
2018-12-19T07:55:09.431Z,81.59
2018-12-19T07:58:12.724Z,81.89
2018-12-19T08:01:17.386Z,81.18
2018-12-19T08:07:33.894Z,82.35
2018-12-19T08:10:37.120Z,82.48
2018-12-19T08:13:40.436Z,82.45
2018-12-19T08:16:43.712Z,82.46
2018-12-19T08:19:46.938Z,82.18
2018-12-19T08:22:50.190Z,82.77
2018-12-19T08:25:53.421Z,82.69
2018-12-19T08:28:56.652Z,83.02
2018-12-19T08:31:59.892Z,83.21
2018-12-19T08:35:03.587Z,83.56
2018-12-19T08:38:06.856Z,83.80
2018-12-19T08:41:10.091Z,84.08
2018-12-19T08:44:13.342Z,83.57
2018-12-19T08:47:16.579Z,83.44
2018-12-19T08:50:19.824Z,83.41
2018-12-19T08:53:23.069Z,83.88
2018-12-19T08:56:26.317Z,83.57
2018-12-19T08:59:29.564Z,83.79
2018-12-19T09:02:32.795Z,84.08
2018-12-19T09:05:36.016Z,84.80
2018-12-19T09:08:39.253Z,84.07
2018-12-19T09:11:42.478Z,84.51
2018-12-19T09:14:45.802Z,84.55
2018-12-19T09:17:49.013Z,84.36
2018-12-19T09:20:52.261Z,84.19
2018-12-19T09:23:55.489Z,83.62
2018-12-19T09:26:58.785Z,84.08
2018-12-19T09:30:02.052Z,84.69
2018-12-19T09:33:05.384Z,84.11
2018-12-19T09:36:08.696Z,84.47
2018-12-19T09:39:11.928Z,84.01
2018-12-19T09:42:15.156Z,83.94
2018-12-19T09:45:18.404Z,84.30
2018-12-19T09:48:21.631Z,83.75
2018-12-19T09:51:24.960Z,83.95
2018-12-19T09:54:28.285Z,84.54
2018-12-19T09:57:31.534Z,84.38
2018-12-19T10:00:34.756Z,85.14
2018-12-19T10:03:38.085Z,84.03
2018-12-19T10:06:41.327Z,84.11
2018-12-19T10:09:44.566Z,84.63
2018-12-19T10:12:47.792Z,84.63
2018-12-19T10:15:51.025Z,85.41
2018-12-19T10:18:54.254Z,85.70
2018-12-19T10:21:57.485Z,86.01
2018-12-19T10:25:06.717Z,85.75
2018-12-19T10:28:09.976Z,85.36
2018-12-19T10:31:13.242Z,85.26
2018-12-19T10:34:16.566Z,84.68
2018-12-19T10:37:19.796Z,84.92
2018-12-19T10:40:23.133Z,85.06
2018-12-19T10:43:26.399Z,85.00
2018-12-19T10:46:29.639Z,84.94
2018-12-19T10:49:32.928Z,85.08
2018-12-19T10:52:36.136Z,85.37
2018-12-19T10:55:39.385Z,84.83
2018-12-19T10:58:42.617Z,84.93
2018-12-19T11:01:45.844Z,85.44
2018-12-19T11:04:49.074Z,85.13
2018-12-19T11:07:52.313Z,84.77
2018-12-19T11:10:55.621Z,85.08
2018-12-19T11:13:58.863Z,85.84
2018-12-19T11:17:02.112Z,85.07
2018-12-19T11:20:09.148Z,84.68
2018-12-19T11:23:12.396Z,85.16
2018-12-19T11:26:15.982Z,85.29
2018-12-19T11:29:19.211Z,84.11
2018-12-19T11:32:22.476Z,85.00
2018-12-19T11:35:25.711Z,85.64
2018-12-19T11:38:28.947Z,85.79
2018-12-19T11:41:38.773Z,85.90
2018-12-19T11:44:37.384Z,86.13
2018-12-19T11:47:40.696Z,86.43
2018-12-19T11:50:43.904Z,85.79
2018-12-19T11:53:47.162Z,86.04
2018-12-19T11:56:50.413Z,86.11
2018-12-19T11:59:53.649Z,85.80
2018-12-19T12:02:56.880Z,86.19
2018-12-19T12:06:00.108Z,86.16
2018-12-19T12:09:05.814Z,86.16
2018-12-19T12:12:09.061Z,86.55
2018-12-19T12:15:12.291Z,86.24
2018-12-19T12:18:15.519Z,87.01
2018-12-19T12:21:18.747Z,87.00
2018-12-19T12:24:22.002Z,87.00
2018-12-19T12:27:25.216Z,86.58
2018-12-19T12:30:28.443Z,86.55
2018-12-19T12:33:31.669Z,87.30
2018-12-19T12:36:34.933Z,87.21
2018-12-19T12:39:38.367Z,87.31
2018-12-19T12:42:41.592Z,87.21
2018-12-19T12:45:44.848Z,87.06
2018-12-19T12:48:48.108Z,87.06
2018-12-19T12:51:51.470Z,87.33
2018-12-19T12:54:54.678Z,86.53
2018-12-19T12:57:57.936Z,86.80
2018-12-19T13:01:01.190Z,87.96
2018-12-19T13:04:04.452Z,87.48
2018-12-19T13:07:07.673Z,87.79
2018-12-19T13:10:12.848Z,87.62
2018-12-19T13:13:16.086Z,86.87
2018-12-19T13:16:19.317Z,87.47
2018-12-19T13:19:22.561Z,87.90
2018-12-19T13:22:25.782Z,87.25
2018-12-19T13:25:29.097Z,87.60
2018-12-19T13:28:32.327Z,87.41
2018-12-19T13:31:35.665Z,87.52
2018-12-19T13:34:38.889Z,88.04
2018-12-19T13:37:42.134Z,87.91
2018-12-19T13:40:45.392Z,87.71
2018-12-19T13:43:48.649Z,88.20
2018-12-19T13:46:51.872Z,88.39
2018-12-19T13:49:55.173Z,88.10
2018-12-19T13:52:58.404Z,87.95
2018-12-19T13:56:01.634Z,87.43
2018-12-19T13:59:04.915Z,87.93
2018-12-19T14:02:08.221Z,87.92
2018-12-19T14:05:11.448Z,87.98
2018-12-19T14:08:14.760Z,88.14
2018-12-19T14:11:17.985Z,88.54
2018-12-19T14:14:21.216Z,88.66
2018-12-19T14:17:24.467Z,88.34
2018-12-19T14:20:27.725Z,89.15
2018-12-19T14:23:30.956Z,88.71
2018-12-19T14:26:34.227Z,88.19
2018-12-19T14:29:37.506Z,88.50
2018-12-19T14:32:40.786Z,88.39
2018-12-19T14:35:44.025Z,88.34
2018-12-19T14:38:47.371Z,88.31
2018-12-19T14:41:50.678Z,88.03
2018-12-19T14:44:53.891Z,88.03
2018-12-19T14:47:57.152Z,88.17
2018-12-19T14:51:00.630Z,88.13
2018-12-19T14:54:04.016Z,87.54
2018-12-19T14:57:07.239Z,87.76
2018-12-19T15:00:10.968Z,87.16
2018-12-19T15:03:14.196Z,87.25
2018-12-19T15:06:17.436Z,86.60
2018-12-19T15:09:20.761Z,86.56
2018-12-19T15:12:25.950Z,86.01
2018-12-19T15:15:29.217Z,86.07
2018-12-19T15:18:32.504Z,86.67
2018-12-19T15:21:35.775Z,86.92
2018-12-19T15:24:38.988Z,86.78
2018-12-19T15:27:42.236Z,86.96
2018-12-19T15:30:45.470Z,87.11
2018-12-19T15:33:48.777Z,87.21
2018-12-19T15:36:51.988Z,87.18
2018-12-19T15:39:55.226Z,86.92
2018-12-19T15:42:58.444Z,87.06
2018-12-19T15:46:01.704Z,86.86
2018-12-19T15:49:04.976Z,86.24
2018-12-19T15:52:08.255Z,86.56
2018-12-19T15:55:11.460Z,87.41
2018-12-19T15:58:14.745Z,87.90
2018-12-19T16:01:17.960Z,87.92
2018-12-19T16:04:21.237Z,88.10
2018-12-19T16:07:24.439Z,87.78
2018-12-19T16:10:27.813Z,88.08
2018-12-19T16:13:31.039Z,87.84
2018-12-19T16:16:34.280Z,87.75
2018-12-19T16:19:37.513Z,88.15
2018-12-19T16:22:40.810Z,87.97
2018-12-19T16:25:44.051Z,88.33
2018-12-19T16:28:47.278Z,87.97
2018-12-19T16:31:50.505Z,87.80
2018-12-19T16:34:53.733Z,87.26
2018-12-19T16:37:56.956Z,87.17
2018-12-19T16:41:00.205Z,87.67
2018-12-19T16:44:03.464Z,87.77
2018-12-19T16:47:06.693Z,87.69
2018-12-19T16:50:09.932Z,87.11
2018-12-19T16:53:13.157Z,86.97
2018-12-19T16:56:16.391Z,87.50
2018-12-19T16:59:19.620Z,87.66
2018-12-19T17:02:22.873Z,87.40
2018-12-19T17:05:26.113Z,87.45
2018-12-19T17:08:29.331Z,87.63
2018-12-19T17:11:32.555Z,87.31
2018-12-19T17:14:35.789Z,87.96
2018-12-19T17:17:39.007Z,87.40
2018-12-19T17:20:42.237Z,87.47
2018-12-19T17:23:45.452Z,87.79
2018-12-19T17:26:48.680Z,87.84
2018-12-19T17:29:51.953Z,87.29
2018-12-19T17:32:55.281Z,86.87
2018-12-19T17:35:58.504Z,87.07
2018-12-19T17:39:01.812Z,87.05
2018-12-19T17:42:05.057Z,87.36
2018-12-19T17:45:08.457Z,87.42
2018-12-19T17:48:11.705Z,87.39
2018-12-19T17:51:14.916Z,87.14
2018-12-19T17:54:18.157Z,86.93
2018-12-19T17:57:21.501Z,87.15
2018-12-19T18:00:24.729Z,86.95
2018-12-19T18:03:27.980Z,87.58
2018-12-19T18:06:31.214Z,87.54
2018-12-19T18:09:34.459Z,87.30
2018-12-19T18:12:37.770Z,87.11
2018-12-19T18:15:41.011Z,87.36
2018-12-19T18:18:44.229Z,87.49
2018-12-19T18:21:47.493Z,86.62
2018-12-19T18:24:50.753Z,87.53
2018-12-19T18:27:53.992Z,87.04
2018-12-19T18:30:57.225Z,87.41
2018-12-19T18:34:00.449Z,87.70
2018-12-19T18:37:03.733Z,87.50
2018-12-19T18:40:07.120Z,86.93
2018-12-19T18:43:13.051Z,85.50
2018-12-19T18:46:15.629Z,85.59
2018-12-19T18:49:18.874Z,84.54
2018-12-19T18:52:22.102Z,83.36
2018-12-19T18:55:25.467Z,82.94
2018-12-19T18:58:28.665Z,82.63
2018-12-19T19:01:31.984Z,82.88
2018-12-19T19:04:35.356Z,81.81
2018-12-19T19:07:38.568Z,81.18
2018-12-19T19:10:41.894Z,80.40
2018-12-19T19:13:45.161Z,80.44
2018-12-19T19:16:48.422Z,79.97
2018-12-19T19:19:51.676Z,79.79
2018-12-19T19:22:54.902Z,79.29
2018-12-19T19:25:58.163Z,79.35
2018-12-19T19:29:01.371Z,79.29
2018-12-19T19:32:04.651Z,78.66
2018-12-19T19:35:07.916Z,78.63
2018-12-19T19:38:11.184Z,78.12
2018-12-19T19:41:14.494Z,77.82
2018-12-19T19:44:17.812Z,78.02
2018-12-19T19:47:21.013Z,78.04
2018-12-19T19:50:24.307Z,77.77
2018-12-19T19:53:27.514Z,77.41
2018-12-19T19:56:30.795Z,77.37
2018-12-19T19:59:34.000Z,76.34
2018-12-19T20:02:37.245Z,77.00
2018-12-19T20:05:40.492Z,76.19
2018-12-19T20:08:43.756Z,76.37
2018-12-19T20:11:46.989Z,76.35
2018-12-19T20:14:50.306Z,76.41
2018-12-19T20:17:53.529Z,76.34
2018-12-19T20:20:56.773Z,75.62
2018-12-19T20:24:00.006Z,74.77
2018-12-19T20:27:03.222Z,75.49
2018-12-19T20:30:09.319Z,75.13
2018-12-19T20:33:12.591Z,75.61
2018-12-19T20:36:15.816Z,75.32
2018-12-19T20:39:19.058Z,75.37
2018-12-19T20:42:22.303Z,75.46
2018-12-19T20:45:25.577Z,75.26
2018-12-19T20:48:28.820Z,74.95
2018-12-19T20:51:32.048Z,75.86
2018-12-19T20:54:35.269Z,76.00
2018-12-19T20:57:38.518Z,76.54
2018-12-19T21:00:41.864Z,76.67
2018-12-19T21:03:45.337Z,77.14
2018-12-19T21:06:48.714Z,77.02
2018-12-19T21:09:51.940Z,77.45
2018-12-19T21:12:55.258Z,77.18
2018-12-19T21:15:58.522Z,77.45
2018-12-19T21:19:01.734Z,77.82
2018-12-19T21:22:09.026Z,78.37
2018-12-19T21:25:12.238Z,77.57
2018-12-19T21:28:15.466Z,77.57
2018-12-19T21:31:18.717Z,77.27
2018-12-19T21:34:21.944Z,77.82
2018-12-19T21:37:25.186Z,77.81
2018-12-19T21:40:28.517Z,77.72
2018-12-19T21:43:31.827Z,77.50
2018-12-19T21:46:35.080Z,77.70
2018-12-19T21:49:38.338Z,77.88
2018-12-19T21:52:41.703Z,77.78
2018-12-19T21:55:45.074Z,78.22
2018-12-19T21:58:48.445Z,78.58
2018-12-19T22:01:51.759Z,78.57
2018-12-19T22:04:55.004Z,78.08
2018-12-19T22:07:58.220Z,78.51
2018-12-19T22:11:01.520Z,77.92
2018-12-19T22:14:04.900Z,77.76
2018-12-19T22:20:47.574Z,77.36
2018-12-19T22:23:50.799Z,77.59
2018-12-19T22:26:54.133Z,77.31
2018-12-19T22:29:57.435Z,78.00
2018-12-19T22:33:00.644Z,77.50
2018-12-19T22:36:03.919Z,77.40
2018-12-19T22:42:24.892Z,77.12
2018-12-19T22:45:28.228Z,77.09
2018-12-19T22:48:31.547Z,76.49
2018-12-19T22:51:34.836Z,76.90
2018-12-19T22:54:38.084Z,77.42
2018-12-19T22:57:41.457Z,77.03
2018-12-19T23:00:51.937Z,76.92
2018-12-19T23:04:00.759Z,77.68
2018-12-19T23:07:04.210Z,77.24
2018-12-19T23:10:07.617Z,77.86
2018-12-19T23:13:10.857Z,77.18
2018-12-19T23:16:14.131Z,76.90
2018-12-19T23:19:17.447Z,76.78
2018-12-19T23:22:20.748Z,76.87
2018-12-19T23:25:24.135Z,78.08
2018-12-19T23:28:27.369Z,78.12
2018-12-19T23:31:30.728Z,78.16
2018-12-19T23:34:34.201Z,78.98
2018-12-19T23:37:37.593Z,79.90
2018-12-19T23:40:40.934Z,80.68
2018-12-19T23:43:44.232Z,80.77
2018-12-19T23:46:47.673Z,81.39
2018-12-19T23:49:51.005Z,80.64
2018-12-19T23:52:54.225Z,80.59
2018-12-19T23:55:57.463Z,80.21
2018-12-19T23:59:00.812Z,80.29
